Eviapetrol I — SY5401 — position and weather

sailwx.info

Track history (hours):
 
Tides and Currents Weather Stations Pressure Air Temp Water Temp Dewpoint Dewpoint Depression Visibility Wind Speed Wind Dir Waves Ship Positions

Eviapetrol I

Last reported at 2014-Oct-22 02:31 UTC. Time now 2014-Oct-23 05:26 UTC.
Position N 37°38' E 023°46'.

Length 75 m; draft 4.5 m.

Type: Tanker. MMSI: 240285000.

Date/timePositionNaut miles runAvg speedWind from/ knotsBaromVisibWave heightAir tempDewpointWater temp
2014-Oct-22 02:31N 37°38' E 023°46'8 8.8
2014-Oct-22 01:33N 37°44' E 023°39'9 9.1
2014-Oct-22 00:33N 37°49' E 023°29'8 8.0
2014-Oct-21 23:33N 37°56' E 023°23'8 7.7
2014-Oct-21 22:33N 38°01' E 023°30'5 4.5
2014-Oct-21 21:31N 38°02' E 023°36'0 0.0
2014-Oct-21 20:31N 38°02' E 023°36'0 0.0
2014-Oct-21 19:28N 38°02' E 023°36'0 0.0
2014-Oct-21 18:31N 38°02' E 023°36'0 0.0
2014-Oct-21 17:31N 38°02' E 023°36'0 0.0
2014-Oct-21 16:31N 38°02' E 023°36'0 0.0
2014-Oct-21 15:31N 38°02' E 023°36'0 0.0
2014-Oct-21 14:31N 38°02' E 023°36'0 0.0
2014-Oct-21 13:32N 38°02' E 023°36'0 0.0
2014-Oct-21 12:33N 38°02' E 023°36'0 0.0
2014-Oct-21 11:33N 38°02' E 023°36'1 1.4
2014-Oct-21 10:32N 38°01' E 023°34'4 4.0
2014-Oct-21 09:33N 37°57' E 023°34'9 9.1
2014-Oct-21 08:33N 37°50' E 023°40'9 9.3
2014-Oct-21 07:33N 37°41' E 023°45'51 9.4
2014-Oct-21 02:07N 36°51' E 023°56'  
2014-Oct-18 17:29N 35°21' E 025°03'0 0.0
2014-Oct-18 16:32N 35°21' E 025°03'0 0.0
2014-Oct-18 15:23N 35°21' E 025°03'0 0.0
2014-Oct-18 14:29N 35°21' E 025°03'0 0.0
2014-Oct-18 13:32N 35°21' E 025°03'0 0.0
2014-Oct-18 12:29N 35°21' E 025°03'0 0.0
2014-Oct-18 11:32N 35°21' E 025°03'0 0.1
2014-Oct-18 10:34N 35°21' E 025°03'7 7.1
2014-Oct-18 09:33N 35°27' E 024°59'10 9.9
2014-Oct-18 08:32N 35°28' E 024°47'38 9.5
2014-Oct-18 04:33N 35°43' E 024°04'1110.0
2014-Oct-18 03:30N 35°48' E 023°53'13 9.9
2014-Oct-18 02:10N 35°57' E 023°41'710.5
2014-Oct-18 01:32N 36°02' E 023°36'14 9.8
2014-Oct-18 00:08N 36°12' E 023°24'15 9.6
2014-Oct-17 22:33N 36°26' E 023°18'20 9.1
2014-Oct-17 20:23N 36°46' E 023°18'8 8.6
2014-Oct-17 19:28N 36°54' E 023°19'26 8.7
2014-Oct-17 16:31N 37°17' E 023°34'8 8.8
2014-Oct-17 15:33N 37°25' E 023°37'9 9.2
2014-Oct-17 14:33N 37°34' E 023°33'9 8.9
2014-Oct-17 13:33N 37°39' E 023°24'9 9.0
2014-Oct-17 12:33N 37°42' E 023°13'9 9.1
2014-Oct-17 11:32N 37°51' E 023°10'6 5.6
2014-Oct-17 10:33N 37°55' E 023°05'0 0.0
2014-Oct-17 09:27N 37°55' E 023°05'0 0.0
2014-Oct-17 08:30N 37°55' E 023°05'0 0.0
2014-Oct-17 07:30N 37°55' E 023°05'0 0.0
2014-Oct-17 06:24N 37°55' E 023°05'0 0.0
2014-Oct-17 05:33N 37°55' E 023°05'0 0.0
2014-Oct-17 04:18N 37°55' E 023°05'0 0.0
2014-Oct-17 03:27N 37°55' E 023°05'0 0.0
2014-Oct-17 02:24N 37°55' E 023°05'0 0.0
2014-Oct-17 00:33N 37°55' E 023°05'0 0.0
2014-Oct-16 22:30N 37°55' E 023°05'0 0.0
2014-Oct-16 21:30N 37°55' E 023°05'0 0.0
2014-Oct-16 20:30N 37°55' E 023°05'10 3.0
2014-Oct-16 17:23N 37°53' E 023°17'7 8.8
2014-Oct-16 16:33N 37°51' E 023°26'9 9.0
2014-Oct-16 15:33N 37°48' E 023°37'9 8.7
2014-Oct-16 14:33N 37°42' E 023°45'9 9.4
2014-Oct-16 13:33N 37°38' E 023°56'9 8.7
2014-Oct-16 12:33N 37°38' E 024°07'10 9.0
2014-Oct-16 11:27N 37°45' E 024°16'7 8.4
2014-Oct-16 10:33N 37°49' E 024°24'9 8.8
2014-Oct-16 09:32N 37°55' E 024°32'19 8.1
2014-Oct-16 07:12N 38°02' E 024°54'15 9.2
2014-Oct-16 05:33N 38°04' E 025°14'10 9.2
2014-Oct-16 04:26N 38°05' E 025°27'11 9.4
2014-Oct-16 03:18N 38°06' E 025°40'7 9.5
2014-Oct-16 02:33N 38°06' E 025°49'3 0.1
2014-Oct-14 21:29N 38°05' E 025°46'9 9.5
2014-Oct-14 20:33N 38°04' E 025°34'82 9.1
2014-Oct-14 11:33N 37°37' E 023°56'10 9.7
2014-Oct-14 10:33N 37°39' E 023°44'9 9.1
2014-Oct-14 09:33N 37°47' E 023°38'9 9.2
2014-Oct-14 08:33N 37°56' E 023°35'6 6.1
2014-Oct-14 07:33N 38°02' E 023°32'0 0.0
2014-Oct-14 06:33N 38°02' E 023°32'0 0.3
2014-Oct-14 05:33N 38°01' E 023°32'3 2.7
2014-Oct-14 04:34N 38°02' E 023°36'0 0.0
2014-Oct-14 03:34N 38°02' E 023°36'0 0.0
2014-Oct-14 02:34N 38°02' E 023°36'0 0.0
2014-Oct-14 01:21N 38°02' E 023°36'0 0.0
2014-Oct-14 00:15N 38°02' E 023°36'0 0.0
2014-Oct-13 23:33N 38°02' E 023°36'0 0.0
2014-Oct-13 22:30N 38°02' E 023°36'0 0.0
2014-Oct-13 21:31N 38°02' E 023°36'0 0.0
2014-Oct-13 20:27N 38°02' E 023°36'0 0.0
2014-Oct-13 19:33N 38°02' E 023°36'0 0.0
2014-Oct-13 18:33N 38°02' E 023°36'  
Track history (hours):
 
Tides and Currents Weather Stations Pressure Air Temp Water Temp Dewpoint Dewpoint Depression Visibility Wind Speed Wind Dir Waves Ship Positions

Eviapetrol I

Last reported at 2014-Oct-22 02:31 UTC. Time now 2014-Oct-23 05:26 UTC.
Position N 37°38' E 023°46'.

Length 75 m; draft 4.5 m.

Type: Tanker. MMSI: 240285000.

Date/timePositionNaut miles runAvg speedWind from/ knotsBaromVisibWave heightAir tempDewpointWater temp
2014-Oct-22 02:31N 37°38' E 023°46'8 8.8
2014-Oct-22 01:33N 37°44' E 023°39'9 9.1
2014-Oct-22 00:33N 37°49' E 023°29'8 8.0
2014-Oct-21 23:33N 37°56' E 023°23'8 7.7
2014-Oct-21 22:33N 38°01' E 023°30'5 4.5
2014-Oct-21 21:31N 38°02' E 023°36'0 0.0
2014-Oct-21 20:31N 38°02' E 023°36'0 0.0
2014-Oct-21 19:28N 38°02' E 023°36'0 0.0
2014-Oct-21 18:31N 38°02' E 023°36'0 0.0
2014-Oct-21 17:31N 38°02' E 023°36'0 0.0
2014-Oct-21 16:31N 38°02' E 023°36'0 0.0
2014-Oct-21 15:31N 38°02' E 023°36'0 0.0
2014-Oct-21 14:31N 38°02' E 023°36'0 0.0
2014-Oct-21 13:32N 38°02' E 023°36'0 0.0
2014-Oct-21 12:33N 38°02' E 023°36'0 0.0
2014-Oct-21 11:33N 38°02' E 023°36'1 1.4
2014-Oct-21 10:32N 38°01' E 023°34'4 4.0
2014-Oct-21 09:33N 37°57' E 023°34'9 9.1
2014-Oct-21 08:33N 37°50' E 023°40'9 9.3
2014-Oct-21 07:33N 37°41' E 023°45'51 9.4
2014-Oct-21 02:07N 36°51' E 023°56'  
2014-Oct-18 17:29N 35°21' E 025°03'0 0.0
2014-Oct-18 16:32N 35°21' E 025°03'0 0.0
2014-Oct-18 15:23N 35°21' E 025°03'0 0.0
2014-Oct-18 14:29N 35°21' E 025°03'0 0.0
2014-Oct-18 13:32N 35°21' E 025°03'0 0.0
2014-Oct-18 12:29N 35°21' E 025°03'0 0.0
2014-Oct-18 11:32N 35°21' E 025°03'0 0.1
2014-Oct-18 10:34N 35°21' E 025°03'7 7.1
2014-Oct-18 09:33N 35°27' E 024°59'10 9.9
2014-Oct-18 08:32N 35°28' E 024°47'38 9.5
2014-Oct-18 04:33N 35°43' E 024°04'1110.0
2014-Oct-18 03:30N 35°48' E 023°53'13 9.9
2014-Oct-18 02:10N 35°57' E 023°41'710.5
2014-Oct-18 01:32N 36°02' E 023°36'14 9.8
2014-Oct-18 00:08N 36°12' E 023°24'15 9.6
2014-Oct-17 22:33N 36°26' E 023°18'20 9.1
2014-Oct-17 20:23N 36°46' E 023°18'8 8.6
2014-Oct-17 19:28N 36°54' E 023°19'26 8.7
2014-Oct-17 16:31N 37°17' E 023°34'8 8.8
2014-Oct-17 15:33N 37°25' E 023°37'9 9.2
2014-Oct-17 14:33N 37°34' E 023°33'9 8.9
2014-Oct-17 13:33N 37°39' E 023°24'9 9.0
2014-Oct-17 12:33N 37°42' E 023°13'9 9.1
2014-Oct-17 11:32N 37°51' E 023°10'6 5.6
2014-Oct-17 10:33N 37°55' E 023°05'0 0.0
2014-Oct-17 09:27N 37°55' E 023°05'0 0.0
2014-Oct-17 08:30N 37°55' E 023°05'0 0.0
2014-Oct-17 07:30N 37°55' E 023°05'0 0.0
2014-Oct-17 06:24N 37°55' E 023°05'0 0.0
2014-Oct-17 05:33N 37°55' E 023°05'0 0.0
2014-Oct-17 04:18N 37°55' E 023°05'0 0.0
2014-Oct-17 03:27N 37°55' E 023°05'0 0.0
2014-Oct-17 02:24N 37°55' E 023°05'0 0.0
2014-Oct-17 00:33N 37°55' E 023°05'0 0.0
2014-Oct-16 22:30N 37°55' E 023°05'0 0.0
2014-Oct-16 21:30N 37°55' E 023°05'0 0.0
2014-Oct-16 20:30N 37°55' E 023°05'10 3.0
2014-Oct-16 17:23N 37°53' E 023°17'7 8.8
2014-Oct-16 16:33N 37°51' E 023°26'9 9.0
2014-Oct-16 15:33N 37°48' E 023°37'9 8.7
2014-Oct-16 14:33N 37°42' E 023°45'9 9.4
2014-Oct-16 13:33N 37°38' E 023°56'9 8.7
2014-Oct-16 12:33N 37°38' E 024°07'10 9.0
2014-Oct-16 11:27N 37°45' E 024°16'7 8.4
2014-Oct-16 10:33N 37°49' E 024°24'9 8.8
2014-Oct-16 09:32N 37°55' E 024°32'19 8.1
2014-Oct-16 07:12N 38°02' E 024°54'15 9.2
2014-Oct-16 05:33N 38°04' E 025°14'10 9.2
2014-Oct-16 04:26N 38°05' E 025°27'11 9.4
2014-Oct-16 03:18N 38°06' E 025°40'7 9.5
2014-Oct-16 02:33N 38°06' E 025°49'3 0.1
2014-Oct-14 21:29N 38°05' E 025°46'9 9.5
2014-Oct-14 20:33N 38°04' E 025°34'82 9.1
2014-Oct-14 11:33N 37°37' E 023°56'10 9.7
2014-Oct-14 10:33N 37°39' E 023°44'9 9.1
2014-Oct-14 09:33N 37°47' E 023°38'9 9.2
2014-Oct-14 08:33N 37°56' E 023°35'6 6.1
2014-Oct-14 07:33N 38°02' E 023°32'0 0.0
2014-Oct-14 06:33N 38°02' E 023°32'0 0.3
2014-Oct-14 05:33N 38°01' E 023°32'3 2.7
2014-Oct-14 04:34N 38°02' E 023°36'0 0.0
2014-Oct-14 03:34N 38°02' E 023°36'0 0.0
2014-Oct-14 02:34N 38°02' E 023°36'0 0.0
2014-Oct-14 01:21N 38°02' E 023°36'0 0.0
2014-Oct-14 00:15N 38°02' E 023°36'0 0.0
2014-Oct-13 23:33N 38°02' E 023°36'0 0.0
2014-Oct-13 22:30N 38°02' E 023°36'0 0.0
2014-Oct-13 21:31N 38°02' E 023°36'0 0.0
2014-Oct-13 20:27N 38°02' E 023°36'0 0.0
2014-Oct-13 19:33N 38°02' E 023°36'0 0.0
2014-Oct-13 18:33N 38°02' E 023°36'  

Dump ship's entire track history